createdAt,value
2017-03-15T00:02:14.389Z,1023.95
2017-03-15T00:07:10.705Z,1023.80
2017-03-15T00:12:07.473Z,1023.80
2017-03-15T00:17:03.724Z,1023.88
2017-03-15T00:22:03.270Z,1023.89
2017-03-15T00:26:59.608Z,1023.81
2017-03-15T00:31:56.199Z,1023.85
2017-03-15T00:36:52.428Z,1023.91
2017-03-15T00:41:49.410Z,1023.94
2017-03-15T00:46:46.223Z,1023.76
2017-03-15T00:51:42.376Z,1023.79
2017-03-15T00:56:39.297Z,1023.91
2017-03-15T01:01:35.891Z,1023.83
2017-03-15T01:06:32.631Z,1023.71
2017-03-15T01:11:29.114Z,1023.87
2017-03-15T01:16:25.621Z,1023.91
2017-03-15T01:21:22.013Z,1023.82
2017-03-15T01:26:18.761Z,1023.90
2017-03-15T01:31:15.151Z,1023.86
2017-03-15T01:36:12.113Z,1023.85
2017-03-15T01:41:08.665Z,1023.87
2017-03-15T01:46:05.972Z,1023.78
2017-03-15T01:51:02.643Z,1023.86
2017-03-15T01:55:59.830Z,1023.65
2017-03-15T02:00:56.435Z,1023.59
2017-03-15T02:05:53.159Z,1023.68
2017-03-15T02:10:49.311Z,1023.56
2017-03-15T02:15:45.641Z,1023.57
2017-03-15T02:20:42.214Z,1023.62
2017-03-15T02:25:38.499Z,1023.77
2017-03-15T02:30:35.075Z,1023.76
2017-03-15T02:35:31.577Z,1023.61
2017-03-15T02:40:28.076Z,1023.69
2017-03-15T02:45:24.493Z,1023.62
2017-03-15T02:50:20.998Z,1023.58
2017-03-15T02:55:18.300Z,1023.54
2017-03-15T03:00:14.917Z,1023.62
2017-03-15T03:05:11.147Z,1023.49
2017-03-15T03:10:08.834Z,1023.49
2017-03-15T03:15:05.599Z,1023.53
2017-03-15T03:20:01.641Z,1023.53
2017-03-15T03:24:58.227Z,1023.68
2017-03-15T03:29:54.634Z,1023.84
2017-03-15T03:34:51.861Z,1023.85
2017-03-15T03:39:48.379Z,1023.91
2017-03-15T03:44:45.746Z,1023.97
2017-03-15T03:49:42.170Z,1024.15
2017-03-15T03:54:38.400Z,1024.01
2017-03-15T03:59:35.132Z,1024.00
2017-03-15T04:04:31.806Z,1024.17
2017-03-15T04:09:28.232Z,1024.11
2017-03-15T04:14:24.643Z,1024.23
2017-03-15T04:19:21.212Z,1024.22
2017-03-15T04:24:17.756Z,1024.21
2017-03-15T04:29:13.887Z,1024.17
2017-03-15T04:34:10.575Z,1024.32
2017-03-15T04:39:07.292Z,1024.29
2017-03-15T04:44:03.641Z,1024.27
2017-03-15T04:49:00.142Z,1024.18
2017-03-15T04:53:56.875Z,1024.17
2017-03-15T04:58:53.401Z,1024.19
2017-03-15T05:03:49.756Z,1024.30
2017-03-15T05:08:46.402Z,1024.28
2017-03-15T05:13:43.462Z,1024.38
2017-03-15T05:18:40.146Z,1024.26
2017-03-15T05:23:36.796Z,1024.32
2017-03-15T05:28:33.461Z,1024.38
2017-03-15T05:33:29.547Z,1024.43
2017-03-15T05:38:26.054Z,1024.35
2017-03-15T05:43:22.647Z,1024.29
2017-03-15T05:48:18.934Z,1024.45
2017-03-15T05:53:15.704Z,1024.52
2017-03-15T05:58:12.197Z,1024.54
2017-03-15T06:03:08.752Z,1024.47
2017-03-15T06:08:06.207Z,1024.60
2017-03-15T06:13:02.747Z,1024.64
2017-03-15T06:17:59.417Z,1024.68
2017-03-15T06:22:56.071Z,1024.58
2017-03-15T06:27:52.013Z,1024.69
2017-03-15T06:32:48.991Z,1024.62
2017-03-15T06:37:45.937Z,1024.74
2017-03-15T06:42:42.417Z,1024.77
2017-03-15T06:47:39.413Z,1024.62
2017-03-15T06:52:36.068Z,1024.72
2017-03-15T06:57:32.670Z,1024.83
2017-03-15T07:02:29.623Z,1024.54
2017-03-15T07:07:26.199Z,1024.54
2017-03-15T07:12:23.120Z,1024.55
2017-03-15T07:17:19.785Z,1024.64
2017-03-15T07:22:16.498Z,1024.65
2017-03-15T07:27:14.043Z,1024.64
2017-03-15T07:32:10.002Z,1024.68
2017-03-15T07:37:06.652Z,1024.77
2017-03-15T07:42:03.492Z,1024.61
2017-03-15T07:47:00.479Z,1024.67
2017-03-15T07:51:57.447Z,1024.72
2017-03-15T07:56:54.940Z,1024.76
2017-03-15T08:01:51.103Z,1024.76
2017-03-15T08:06:48.180Z,1024.97
2017-03-15T08:11:45.791Z,1024.88
2017-03-15T08:16:42.392Z,1024.92
2017-03-15T08:21:39.811Z,1024.90
2017-03-15T08:26:36.665Z,1024.92
2017-03-15T08:31:33.765Z,1025.03
2017-03-15T08:36:30.309Z,1024.94
2017-03-15T08:41:27.164Z,1025.06
2017-03-15T08:46:23.929Z,1025.08
2017-03-15T08:51:21.289Z,1024.98
2017-03-15T08:56:17.935Z,1025.13
2017-03-15T09:01:14.566Z,1025.23
2017-03-15T09:06:11.380Z,1025.27
2017-03-15T09:11:08.566Z,1025.25
2017-03-15T09:16:05.697Z,1025.32
2017-03-15T09:21:02.642Z,1025.31
2017-03-15T09:25:59.333Z,1025.29
2017-03-15T09:30:55.967Z,1025.24
2017-03-15T09:35:52.438Z,1025.21
2017-03-15T09:40:50.204Z,1025.29
2017-03-15T09:45:46.612Z,1025.31
2017-03-15T09:50:44.382Z,1025.36
2017-03-15T09:55:40.645Z,1025.37
2017-03-15T10:00:37.207Z,1025.40
2017-03-15T10:05:33.824Z,1025.31
2017-03-15T10:10:30.215Z,1025.41
2017-03-15T10:15:27.327Z,1025.44
2017-03-15T10:20:24.253Z,1025.56
2017-03-15T10:25:21.065Z,1025.39
2017-03-15T10:30:18.446Z,1025.47
2017-03-15T10:35:15.637Z,1025.46
2017-03-15T10:40:12.867Z,1025.53
2017-03-15T10:45:09.578Z,1025.48
2017-03-15T10:50:06.191Z,1025.51
2017-03-15T10:55:03.497Z,1025.66
2017-03-15T11:00:00.849Z,1025.69
2017-03-15T11:04:58.249Z,1025.72
2017-03-15T11:09:56.784Z,1025.66
2017-03-15T11:14:53.731Z,1025.76
2017-03-15T11:19:51.095Z,1025.59
2017-03-15T11:24:47.268Z,1025.64
2017-03-15T11:29:43.353Z,1025.67
2017-03-15T11:34:40.355Z,1025.72
2017-03-15T11:39:37.140Z,1025.70
2017-03-15T11:44:34.066Z,1025.68
2017-03-15T11:49:31.011Z,1025.69
2017-03-15T11:54:27.865Z,1025.54
2017-03-15T11:59:24.704Z,1025.59
2017-03-15T12:04:21.251Z,1025.53
2017-03-15T12:09:18.252Z,1025.62
2017-03-15T12:14:15.144Z,1025.56
2017-03-15T12:19:12.163Z,1025.52
2017-03-15T12:24:08.863Z,1025.44
2017-03-15T12:29:05.519Z,1025.39
2017-03-15T12:34:02.092Z,1025.31
2017-03-15T12:38:59.819Z,1025.33
2017-03-15T12:43:55.956Z,1025.22
2017-03-15T12:48:52.385Z,1025.09
2017-03-15T12:53:49.607Z,1025.03
2017-03-15T12:58:44.937Z,1025.07
2017-03-15T13:03:41.504Z,1025.02
2017-03-15T13:08:38.213Z,1025.00
2017-03-15T13:13:34.129Z,1024.98
2017-03-15T13:18:31.237Z,1024.91
2017-03-15T13:23:28.699Z,1024.84
2017-03-15T13:28:25.524Z,1024.79
2017-03-15T13:33:21.659Z,1024.70
2017-03-15T13:38:17.899Z,1024.67
2017-03-15T13:43:14.801Z,1024.63
2017-03-15T13:48:11.016Z,1024.57
2017-03-15T13:53:06.830Z,1024.64
2017-03-15T13:58:04.382Z,1024.56
2017-03-15T14:03:00.991Z,1024.62
2017-03-15T14:07:57.660Z,1024.52
2017-03-15T14:12:54.374Z,1024.52
2017-03-15T14:17:51.091Z,1024.55
2017-03-15T14:22:47.659Z,1024.52
2017-03-15T14:27:44.284Z,1024.57
2017-03-15T14:32:40.738Z,1024.49
2017-03-15T14:37:37.431Z,1024.39
2017-03-15T14:42:33.340Z,1024.31
2017-03-15T14:47:29.607Z,1024.27
2017-03-15T14:52:26.689Z,1024.38
2017-03-15T14:57:23.198Z,1024.18
2017-03-15T15:02:19.708Z,1024.23
2017-03-15T15:07:16.147Z,1024.14
2017-03-15T15:12:12.766Z,1024.13
2017-03-15T15:17:08.986Z,1024.02
2017-03-15T15:22:05.269Z,1024.04
2017-03-15T15:27:01.909Z,1024.09
2017-03-15T15:31:57.715Z,1024.04
2017-03-15T15:36:54.616Z,1024.01
2017-03-15T15:41:51.092Z,1024.05
2017-03-15T15:46:47.414Z,1024.13
2017-03-15T15:51:43.772Z,1024.10
2017-03-15T15:56:40.529Z,1024.06
2017-03-15T16:01:37.147Z,1024.09
2017-03-15T16:06:33.870Z,1024.09
2017-03-15T16:11:30.132Z,1024.17
2017-03-15T16:16:26.587Z,1024.12
2017-03-15T16:21:22.964Z,1024.12
2017-03-15T16:26:19.617Z,1024.19
2017-03-15T16:31:16.213Z,1024.10
2017-03-15T16:36:12.429Z,1024.13
2017-03-15T16:41:08.991Z,1024.02
2017-03-15T16:46:05.505Z,1024.06
2017-03-15T16:51:01.889Z,1024.12
2017-03-15T16:55:58.620Z,1024.14
2017-03-15T17:00:54.880Z,1024.16
2017-03-15T17:05:51.437Z,1024.09
2017-03-15T17:10:48.064Z,1024.19
2017-03-15T17:15:45.105Z,1024.20
2017-03-15T17:20:41.706Z,1024.21
2017-03-15T17:25:38.404Z,1024.24
2017-03-15T17:30:34.986Z,1024.20
2017-03-15T17:35:31.326Z,1024.19
2017-03-15T17:40:28.183Z,1024.25
2017-03-15T17:45:27.328Z,1024.35
2017-03-15T17:50:22.821Z,1024.37
2017-03-15T17:55:19.008Z,1024.35
2017-03-15T18:00:15.795Z,1024.39
2017-03-15T18:05:13.048Z,1024.41
2017-03-15T18:10:09.671Z,1024.47
2017-03-15T18:15:05.986Z,1024.42
2017-03-15T18:20:02.470Z,1024.55
2017-03-15T18:24:59.849Z,1024.41
2017-03-15T18:29:56.491Z,1024.39
2017-03-15T18:34:53.021Z,1024.42
2017-03-15T18:39:49.472Z,1024.37
2017-03-15T18:44:45.804Z,1024.31
2017-03-15T18:49:43.360Z,1024.38
2017-03-15T18:54:40.258Z,1024.23
2017-03-15T18:59:36.510Z,1024.31
2017-03-15T19:04:33.136Z,1024.24
2017-03-15T19:09:29.997Z,1024.27
2017-03-15T19:14:26.455Z,1024.23
2017-03-15T19:19:23.031Z,1024.27
2017-03-15T19:24:20.418Z,1024.29
2017-03-15T19:29:16.648Z,1024.28
2017-03-15T19:34:13.083Z,1024.18
2017-03-15T19:39:09.300Z,1024.17
2017-03-15T19:44:05.705Z,1024.11
2017-03-15T19:49:02.109Z,1024.03
2017-03-15T19:53:58.869Z,1024.04
2017-03-15T19:58:54.819Z,1024.16
2017-03-15T20:03:51.487Z,1024.07
2017-03-15T20:08:47.824Z,1024.13
2017-03-15T20:13:44.445Z,1024.12
2017-03-15T20:18:40.785Z,1024.09
2017-03-15T20:23:37.264Z,1024.03
2017-03-15T20:28:33.405Z,1023.96
2017-03-15T20:33:30.136Z,1023.95
2017-03-15T20:38:27.066Z,1023.98
2017-03-15T20:43:23.540Z,1023.92
2017-03-15T20:48:20.448Z,1023.83
2017-03-15T20:53:16.777Z,1023.79
2017-03-15T20:58:13.638Z,1023.75
2017-03-15T21:03:10.210Z,1023.79
2017-03-15T21:08:06.430Z,1023.65
2017-03-15T21:13:02.882Z,1023.64
2017-03-15T21:17:59.181Z,1023.51
2017-03-15T21:22:56.101Z,1023.51
2017-03-15T21:27:52.599Z,1023.48
2017-03-15T21:32:49.132Z,1023.45
2017-03-15T21:37:45.757Z,1023.51
2017-03-15T21:42:42.203Z,1023.33
2017-03-15T21:47:38.635Z,1023.34
2017-03-15T21:52:35.156Z,1023.31
2017-03-15T21:57:31.438Z,1023.29
2017-03-15T22:02:27.750Z,1023.35
2017-03-15T22:07:24.033Z,1023.22
2017-03-15T22:12:20.113Z,1023.35
2017-03-15T22:17:16.491Z,1023.19
2017-03-15T22:22:14.391Z,1023.24
2017-03-15T22:27:10.400Z,1023.43
2017-03-15T22:32:06.685Z,1023.24
2017-03-15T22:37:03.156Z,1023.30
2017-03-15T22:42:01.877Z,1023.38
2017-03-15T22:46:57.888Z,1023.16
2017-03-15T22:51:54.701Z,1023.09
2017-03-15T22:56:51.291Z,1023.11
2017-03-15T23:01:48.947Z,1023.09
2017-03-15T23:06:46.025Z,1023.13
2017-03-15T23:11:42.963Z,1023.10
2017-03-15T23:16:39.190Z,1023.02
2017-03-15T23:21:35.404Z,1022.94
2017-03-15T23:26:31.843Z,1022.82
2017-03-15T23:31:28.313Z,1022.74
2017-03-15T23:36:24.934Z,1022.67
2017-03-15T23:41:21.465Z,1022.61
2017-03-15T23:46:17.885Z,1022.66
2017-03-15T23:51:15.010Z,1022.70
2017-03-15T23:56:11.258Z,1022.53
